createdAt,value
2018-05-16T00:02:15.741Z,100766.16
2018-05-16T00:04:41.576Z,100764.09
2018-05-16T00:07:08.192Z,100762.50
2018-05-16T00:09:34.956Z,100766.30
2018-05-16T00:12:00.794Z,100763.06
2018-05-16T00:14:26.596Z,100756.38
2018-05-16T00:16:53.347Z,100756.50
2018-05-16T00:19:19.993Z,100756.23
2018-05-16T00:21:45.790Z,100763.73
2018-05-16T00:24:12.557Z,100762.14
2018-05-16T00:26:39.422Z,100761.57
2018-05-16T00:29:06.199Z,100755.42
2018-05-16T00:31:32.045Z,100757.53
2018-05-16T00:33:57.844Z,100756.16
2018-05-16T00:36:23.651Z,100758.41
2018-05-16T00:38:50.261Z,100760.77
2018-05-16T00:41:17.077Z,100755.76
2018-05-16T00:43:43.920Z,100769.61
2018-05-16T00:46:10.699Z,100772.99
2018-05-16T00:48:36.504Z,100768.10
2018-05-16T00:51:08.473Z,100764.61
2018-05-16T00:53:35.468Z,100759.64
2018-05-16T00:56:02.116Z,100753.02
2018-05-16T00:58:28.916Z,100751.38
2018-05-16T01:00:54.788Z,100746.40
2018-05-16T01:03:20.593Z,100750.97
2018-05-16T01:05:46.393Z,100751.31
2018-05-16T01:08:12.206Z,100755.89
2018-05-16T01:10:38.815Z,100758.95
2018-05-16T01:13:04.620Z,100756.63
2018-05-16T01:15:31.444Z,100760.55
2018-05-16T01:17:57.253Z,100750.48
2018-05-16T01:20:23.104Z,100749.77
2018-05-16T01:22:48.905Z,100761.53
2018-05-16T01:25:14.705Z,100752.70
2018-05-16T01:27:40.511Z,100754.95
2018-05-16T01:30:07.132Z,100752.02
2018-05-16T01:32:32.939Z,100744.49
2018-05-16T01:34:58.740Z,100747.16
2018-05-16T01:37:25.632Z,100741.91
2018-05-16T01:39:52.371Z,100738.85
2018-05-16T01:42:18.263Z,100738.85
2018-05-16T01:44:44.118Z,100740.42
2018-05-16T01:47:09.915Z,100744.74
2018-05-16T01:49:35.720Z,100742.28
2018-05-16T01:52:02.384Z,100739.56
2018-05-16T01:54:28.185Z,100747.14
2018-05-16T01:56:53.999Z,100737.44
2018-05-16T01:59:19.800Z,100736.80
2018-05-16T02:01:45.601Z,100728.83
2018-05-16T02:04:11.406Z,100735.03
2018-05-16T02:06:37.212Z,100732.05
2018-05-16T02:09:03.048Z,100736.95
2018-05-16T02:11:28.847Z,100740.11
2018-05-16T02:13:54.652Z,100738.22
2018-05-16T02:16:20.451Z,100735.28
2018-05-16T02:18:46.253Z,100733.83
2018-05-16T02:21:12.052Z,100733.83
2018-05-16T02:23:37.857Z,100734.45
2018-05-16T02:26:03.660Z,100738.14
2018-05-16T02:28:29.501Z,100735.17
2018-05-16T02:30:55.309Z,100742.77
2018-05-16T02:33:21.153Z,100739.78
2018-05-16T02:35:46.982Z,100744.81
2018-05-16T02:38:12.836Z,100737.09
2018-05-16T02:40:38.641Z,100740.91
2018-05-16T02:43:04.577Z,100736.41
2018-05-16T02:45:30.569Z,100733.13
2018-05-16T02:47:56.373Z,100732.23
2018-05-16T02:50:22.176Z,100738.09
2018-05-16T02:52:47.989Z,100732.06
2018-05-16T02:55:14.821Z,100735.58
2018-05-16T02:57:40.629Z,100732.83
2018-05-16T03:00:06.469Z,100737.92
2018-05-16T03:02:32.308Z,100735.37
2018-05-16T03:04:58.108Z,100726.41
2018-05-16T03:07:24.886Z,100721.23
2018-05-16T03:09:50.693Z,100724.22
2018-05-16T03:12:17.468Z,100732.60
2018-05-16T03:14:43.376Z,100738.36
2018-05-16T03:17:09.182Z,100740.77
2018-05-16T03:19:34.997Z,100744.25
2018-05-16T03:22:01.617Z,100739.61
2018-05-16T03:24:28.326Z,100737.99
2018-05-16T03:26:55.191Z,100738.20
2018-05-16T03:29:22.028Z,100742.70
2018-05-16T03:31:47.834Z,100742.27
2018-05-16T03:34:14.525Z,100737.73
2018-05-16T03:36:41.273Z,100736.59
2018-05-16T03:39:07.116Z,100737.06
2018-05-16T03:41:33.656Z,100737.38
2018-05-16T03:43:59.501Z,100729.05
2018-05-16T03:46:25.345Z,100729.68
2018-05-16T03:48:51.201Z,100745.40
2018-05-16T03:51:17.996Z,100748.92
2018-05-16T03:53:44.743Z,100754.73
2018-05-16T03:56:10.540Z,100754.02
2018-05-16T03:58:42.557Z,100748.91
2018-05-16T04:01:14.629Z,100740.45
2018-05-16T04:03:46.719Z,100735.78
2018-05-16T04:06:13.525Z,100737.77
2018-05-16T04:08:39.323Z,100739.36
2018-05-16T04:11:05.921Z,100739.53
2018-05-16T04:13:31.783Z,100736.30
2018-05-16T04:15:57.705Z,100739.72
2018-05-16T04:18:23.533Z,100742.69
2018-05-16T04:20:49.339Z,100740.70
2018-05-16T04:23:15.138Z,100743.08
2018-05-16T04:25:40.984Z,100743.16
2018-05-16T04:28:06.784Z,100736.54
2018-05-16T04:30:32.644Z,100734.83
2018-05-16T04:32:58.485Z,100735.62
2018-05-16T04:35:24.293Z,100735.90
2018-05-16T04:37:51.184Z,100745.11
2018-05-16T04:40:16.984Z,100742.94
2018-05-16T04:42:42.832Z,100743.09
2018-05-16T04:45:08.651Z,100745.31
2018-05-16T04:47:35.511Z,100743.15
2018-05-16T04:50:02.305Z,100748.03
2018-05-16T04:52:28.149Z,100751.70
2018-05-16T04:54:54.922Z,100747.83
2018-05-16T04:57:21.640Z,100751.84
2018-05-16T04:59:47.448Z,100748.70
2018-05-16T05:02:13.256Z,100749.89
2018-05-16T05:04:39.059Z,100752.13
2018-05-16T05:07:05.704Z,100748.98
2018-05-16T05:09:31.620Z,100747.16
2018-05-16T05:11:57.428Z,100754.66
2018-05-16T05:14:23.232Z,100747.48
2018-05-16T05:16:49.032Z,100740.38
2018-05-16T05:19:14.830Z,100737.42
2018-05-16T05:21:41.573Z,100742.94
2018-05-16T05:24:08.187Z,100735.17
2018-05-16T05:26:34.008Z,100738.75
2018-05-16T05:28:59.808Z,100739.53
2018-05-16T05:31:25.613Z,100742.19
2018-05-16T05:33:51.416Z,100746.84
2018-05-16T05:36:17.219Z,100745.80
2018-05-16T05:38:43.030Z,100745.45
2018-05-16T05:41:08.833Z,100750.15
2018-05-16T05:43:34.692Z,100751.39
2018-05-16T05:46:02.577Z,100748.66
2018-05-16T05:48:28.412Z,100743.34
2018-05-16T05:50:54.214Z,100744.48
2018-05-16T05:53:20.065Z,100753.17
2018-05-16T05:55:46.838Z,100746.22
2018-05-16T05:58:13.473Z,100751.02
2018-05-16T06:00:39.364Z,100753.59
2018-05-16T06:03:05.174Z,100755.48
2018-05-16T06:05:31.002Z,100762.97
2018-05-16T06:07:56.821Z,100758.89
2018-05-16T06:13:06.443Z,100751.89
2018-05-16T06:15:32.244Z,100754.73
2018-05-16T06:17:58.044Z,100750.66
2018-05-16T06:20:25.391Z,100751.41
2018-05-16T06:22:51.201Z,100767.00
2018-05-16T06:25:18.240Z,100770.83
2018-05-16T06:27:44.045Z,100764.34
2018-05-16T06:30:09.856Z,100764.37
2018-05-16T06:32:35.675Z,100766.48
2018-05-16T06:35:01.482Z,100764.70
2018-05-16T06:37:27.288Z,100760.09
2018-05-16T06:39:53.092Z,100761.66
2018-05-16T06:42:18.896Z,100766.02
2018-05-16T06:44:44.700Z,100771.94
2018-05-16T06:47:11.480Z,100769.37
2018-05-16T06:49:37.284Z,100779.57
2018-05-16T06:52:03.091Z,100766.13
2018-05-16T06:54:28.896Z,100763.55
2018-05-16T06:56:54.701Z,100759.56
2018-05-16T06:59:20.504Z,100765.30
2018-05-16T07:01:46.313Z,100762.16
2018-05-16T07:04:12.185Z,100761.66
2018-05-16T07:06:38.000Z,100754.89
2018-05-16T07:09:04.677Z,100755.04
2018-05-16T07:11:31.300Z,100756.02
2018-05-16T07:13:58.187Z,100752.11
2018-05-16T07:16:24.028Z,100751.40
2018-05-16T07:18:49.931Z,100749.73
2018-05-16T07:21:16.696Z,100750.48
2018-05-16T07:23:43.353Z,100748.97
2018-05-16T07:26:09.194Z,100748.48
2018-05-16T07:28:35.001Z,100747.43
2018-05-16T07:31:01.672Z,100740.39
2018-05-16T07:33:28.490Z,100737.73
2018-05-16T07:35:54.325Z,100735.84
2018-05-16T07:38:20.174Z,100742.35
2018-05-16T07:40:45.978Z,100741.52
2018-05-16T07:43:11.813Z,100738.72
2018-05-16T07:45:37.612Z,100750.23
2018-05-16T07:48:03.416Z,100747.36
2018-05-16T07:50:29.283Z,100740.46
2018-05-16T07:52:55.202Z,100742.27
2018-05-16T07:55:21.052Z,100743.67
2018-05-16T07:57:46.853Z,100744.51
2018-05-16T08:00:12.662Z,100748.56
2018-05-16T08:02:38.468Z,100741.93
2018-05-16T08:05:04.281Z,100748.26
2018-05-16T08:07:30.092Z,100747.84
2018-05-16T08:09:55.937Z,100746.86
2018-05-16T08:12:21.776Z,100744.77
2018-05-16T08:14:47.677Z,100743.11
2018-05-16T08:17:14.423Z,100748.83
2018-05-16T08:19:55.833Z,100746.59
2018-05-16T08:22:21.692Z,100748.76
2018-05-16T08:24:47.488Z,100743.75
2018-05-16T08:27:13.333Z,100734.66
2018-05-16T08:29:40.073Z,100737.58
2018-05-16T08:32:05.925Z,100740.19
2018-05-16T08:34:32.533Z,100739.06
2018-05-16T08:36:58.335Z,100742.63
2018-05-16T08:39:24.144Z,100744.92
2018-05-16T08:41:49.953Z,100746.81
2018-05-16T08:44:16.685Z,100740.39
2018-05-16T08:46:42.494Z,100746.40
2018-05-16T08:49:09.232Z,100748.56
2018-05-16T08:51:35.985Z,100750.57
2018-05-16T08:54:01.875Z,100749.05
2018-05-16T08:56:27.684Z,100750.41
2018-05-16T08:58:53.497Z,100750.07
2018-05-16T09:01:19.393Z,100746.81
2018-05-16T09:03:46.044Z,100751.70
2018-05-16T09:06:12.687Z,100746.40
2018-05-16T09:08:38.488Z,100753.37
2018-05-16T09:11:04.296Z,100748.81
2018-05-16T09:13:30.135Z,100743.10
2018-05-16T09:15:55.940Z,100750.14
2018-05-16T09:18:21.819Z,100753.48
2018-05-16T09:20:48.596Z,100755.94
2018-05-16T09:23:14.481Z,100754.88
2018-05-16T09:25:40.341Z,100762.06
2018-05-16T09:28:06.148Z,100754.12
2018-05-16T09:30:31.994Z,100754.54
2018-05-16T09:32:57.801Z,100750.78
2018-05-16T09:35:24.464Z,100754.54
2018-05-16T09:37:50.269Z,100746.31
2018-05-16T09:40:16.078Z,100747.08
2018-05-16T09:42:41.889Z,100750.70
2018-05-16T09:45:07.691Z,100747.64
2018-05-16T09:47:33.566Z,100744.16
2018-05-16T09:49:59.372Z,100747.64
2018-05-16T09:52:25.200Z,100740.22
2018-05-16T09:54:51.001Z,100745.83
2018-05-16T09:57:16.812Z,100738.70
2018-05-16T09:59:42.799Z,100742.60
2018-05-16T10:02:08.605Z,100743.29
2018-05-16T10:04:34.413Z,100740.64
2018-05-16T10:07:00.258Z,100744.42
2018-05-16T10:09:27.001Z,100740.18
2018-05-16T10:11:52.804Z,100746.43
2018-05-16T10:14:18.608Z,100745.75
2018-05-16T10:16:44.408Z,100745.61
2018-05-16T10:19:10.213Z,100738.56
2018-05-16T10:21:36.057Z,100743.86
2018-05-16T10:24:02.825Z,100735.15
2018-05-16T10:26:29.753Z,100744.69
2018-05-16T10:28:55.560Z,100742.37
2018-05-16T10:31:21.368Z,100736.06
2018-05-16T10:33:47.176Z,100732.27
2018-05-16T10:36:12.979Z,100734.80
2018-05-16T10:38:39.781Z,100735.75
2018-05-16T10:41:05.584Z,100730.83
2018-05-16T10:43:32.256Z,100737.79
2018-05-16T10:45:59.024Z,100736.66
2018-05-16T10:48:25.342Z,100731.52
2018-05-16T10:50:51.265Z,100729.08
2018-05-16T10:53:18.525Z,100737.45
2018-05-16T10:55:44.425Z,100727.80
2018-05-16T10:58:10.236Z,100725.22
2018-05-16T11:00:36.040Z,100728.21
2018-05-16T11:03:01.849Z,100724.73
2018-05-16T11:05:27.654Z,100726.36
2018-05-16T11:07:53.489Z,100719.49
2018-05-16T11:10:19.328Z,100715.79
2018-05-16T11:12:45.171Z,100720.14
2018-05-16T11:15:11.055Z,100710.64
2018-05-16T11:17:36.909Z,100709.80
2018-05-16T11:20:02.731Z,100705.00
2018-05-16T11:22:28.536Z,100701.09
2018-05-16T11:24:54.339Z,100705.91
2018-05-16T11:27:20.192Z,100699.78
2018-05-16T11:29:45.995Z,100698.11
2018-05-16T11:32:11.816Z,100699.77
2018-05-16T11:34:37.613Z,100698.78
2018-05-16T11:37:03.464Z,100696.98
2018-05-16T11:39:29.268Z,100693.08
2018-05-16T11:41:55.081Z,100706.97
2018-05-16T11:44:20.909Z,100700.62
2018-05-16T11:46:46.712Z,100697.39
2018-05-16T11:49:12.520Z,100705.23
2018-05-16T11:51:38.332Z,100704.23
2018-05-16T11:54:04.140Z,100707.00
2018-05-16T11:56:30.911Z,100707.50
2018-05-16T11:58:57.513Z,100706.89
2018-05-16T12:01:23.483Z,100702.01
2018-05-16T12:03:49.318Z,100702.77
2018-05-16T12:06:15.225Z,100704.66
2018-05-16T12:08:41.997Z,100699.36
2018-05-16T12:11:07.804Z,100706.33
2018-05-16T12:13:34.677Z,100697.73
2018-05-16T12:16:00.480Z,100698.78
2018-05-16T12:18:27.169Z,100689.92
2018-05-16T12:20:52.980Z,100699.96
2018-05-16T12:23:19.710Z,100702.61
2018-05-16T12:25:46.497Z,100700.68
2018-05-16T12:28:12.416Z,100699.69
2018-05-16T12:30:39.314Z,100698.44
2018-05-16T12:33:06.169Z,100697.16
2018-05-16T12:35:33.000Z,100693.30
2018-05-16T12:37:58.813Z,100686.56
2018-05-16T12:40:24.682Z,100688.41
2018-05-16T12:42:56.690Z,100695.88
2018-05-16T12:45:23.473Z,100695.04
2018-05-16T12:47:50.261Z,100694.05
2018-05-16T12:50:16.066Z,100692.99
2018-05-16T12:52:42.681Z,100695.41
2018-05-16T12:55:08.488Z,100692.16
2018-05-16T12:57:34.372Z,100682.39
2018-05-16T13:00:00.965Z,100682.20
2018-05-16T13:02:26.812Z,100676.49
2018-05-16T13:04:53.552Z,100673.69
2018-05-16T13:07:19.398Z,100673.35
2018-05-16T13:09:46.250Z,100671.48
2018-05-16T13:12:13.032Z,100670.43
2018-05-16T13:14:39.633Z,100672.66
2018-05-16T13:17:05.433Z,100673.98
2018-05-16T13:19:31.356Z,100670.84
2018-05-16T13:21:58.093Z,100673.08
2018-05-16T13:24:23.924Z,100675.66
2018-05-16T13:26:50.744Z,100665.81
2018-05-16T13:29:16.557Z,100667.06
2018-05-16T13:31:42.396Z,100665.97
2018-05-16T13:34:08.196Z,100662.34
2018-05-16T13:36:34.928Z,100660.67
2018-05-16T13:39:00.728Z,100657.30
2018-05-16T13:41:27.513Z,100655.59
2018-05-16T13:43:53.347Z,100652.98
2018-05-16T13:46:19.157Z,100658.43
2018-05-16T13:48:45.969Z,100650.90
2018-05-16T13:51:11.813Z,100648.86
2018-05-16T13:53:38.712Z,100647.34
2018-05-16T13:56:05.393Z,100641.63
2018-05-16T13:58:32.124Z,100648.14
2018-05-16T14:00:57.929Z,100646.44
2018-05-16T14:03:23.800Z,100642.05
2018-05-16T14:05:49.605Z,100643.25
2018-05-16T14:08:15.410Z,100635.64
2018-05-16T14:10:41.228Z,100643.59
2018-05-16T14:13:07.028Z,100647.56
2018-05-16T14:15:32.837Z,100645.91
2018-05-16T14:17:58.645Z,100646.28
2018-05-16T14:20:24.453Z,100639.63
2018-05-16T14:22:50.259Z,100650.37
2018-05-16T14:25:16.066Z,100649.16
2018-05-16T14:27:41.876Z,100653.14
2018-05-16T14:30:07.681Z,100649.23
2018-05-16T14:32:33.483Z,100653.55
2018-05-16T14:34:59.286Z,100661.34
2018-05-16T14:37:25.124Z,100656.83
2018-05-16T14:39:51.917Z,100656.42
2018-05-16T14:42:17.725Z,100654.95
2018-05-16T14:44:43.593Z,100650.48
2018-05-16T14:47:09.403Z,100655.22
2018-05-16T14:49:35.253Z,100652.52
2018-05-16T14:52:01.063Z,100647.56
2018-05-16T14:54:26.863Z,100643.70
2018-05-16T14:56:52.682Z,100644.92
2018-05-16T14:59:18.489Z,100643.28
2018-05-16T15:01:44.364Z,100641.02
2018-05-16T15:04:10.184Z,100632.00
2018-05-16T15:06:36.889Z,100636.13
2018-05-16T15:09:02.720Z,100626.36
2018-05-16T15:11:28.601Z,100629.70
2018-05-16T15:13:54.408Z,100616.72
2018-05-16T15:16:20.221Z,100617.09
2018-05-16T15:18:46.030Z,100611.38
2018-05-16T15:21:12.822Z,100619.52
2018-05-16T15:23:38.633Z,100617.21
2018-05-16T15:26:05.373Z,100618.48
2018-05-16T15:28:31.210Z,100624.95
2018-05-16T15:30:57.052Z,100626.86
2018-05-16T15:33:23.900Z,100635.90
2018-05-16T15:35:50.621Z,100632.83
2018-05-16T15:38:17.362Z,100630.86
2018-05-16T15:40:43.176Z,100639.94
2018-05-16T15:43:09.964Z,100637.71
2018-05-16T15:45:35.808Z,100641.05
2018-05-16T15:48:01.652Z,100635.63
2018-05-16T15:50:27.499Z,100644.83
2018-05-16T15:52:54.321Z,100643.28
2018-05-16T15:55:20.171Z,100640.78
2018-05-16T15:57:45.976Z,100642.11
2018-05-16T16:00:11.890Z,100638.05
2018-05-16T16:02:37.693Z,100648.17
2018-05-16T16:05:03.534Z,100653.47
2018-05-16T16:07:30.170Z,100655.51
2018-05-16T16:09:57.010Z,100658.92
2018-05-16T16:12:22.859Z,100658.16
2018-05-16T16:14:49.601Z,100652.78
2018-05-16T16:17:15.447Z,100652.92
2018-05-16T16:19:42.216Z,100653.54
2018-05-16T16:22:08.065Z,100652.44
2018-05-16T16:24:34.679Z,100651.72
2018-05-16T16:27:00.487Z,100654.03
2018-05-16T16:29:27.149Z,100651.86
2018-05-16T16:31:53.978Z,100651.22
2018-05-16T16:34:20.740Z,100644.41
2018-05-16T16:36:47.361Z,100640.84
2018-05-16T16:39:13.307Z,100633.92
2018-05-16T16:41:40.008Z,100636.38
2018-05-16T16:44:06.785Z,100645.44
2018-05-16T16:46:33.416Z,100651.45
2018-05-16T16:49:00.025Z,100653.39
2018-05-16T16:51:26.724Z,100661.14
2018-05-16T16:53:52.572Z,100676.77
2018-05-16T16:56:18.377Z,100676.20
2018-05-16T16:58:45.089Z,100681.09
2018-05-16T17:01:11.111Z,100673.65
2018-05-16T17:03:36.916Z,100664.14
2018-05-16T17:06:02.753Z,100668.03
2018-05-16T17:08:28.561Z,100665.46
2018-05-16T17:10:54.368Z,100665.72
2018-05-16T17:13:20.209Z,100666.22
2018-05-16T17:15:46.021Z,100662.88
2018-05-16T17:18:11.826Z,100664.89
2018-05-16T17:20:37.636Z,100655.61
2018-05-16T17:23:04.389Z,100656.11
2018-05-16T17:25:30.185Z,100651.09
2018-05-16T17:27:56.001Z,100648.91
2018-05-16T17:30:22.707Z,100643.16
2018-05-16T17:32:49.498Z,100635.41
2018-05-16T17:35:15.348Z,100636.13
2018-05-16T17:37:44.324Z,100636.95
2018-05-16T17:42:51.338Z,100636.32
2018-05-16T17:45:17.145Z,100634.81
2018-05-16T17:47:43.054Z,100632.27
2018-05-16T17:50:09.789Z,100629.50
2018-05-16T17:52:35.597Z,100627.88
2018-05-16T17:55:02.477Z,100629.28
2018-05-16T17:57:28.287Z,100628.79
2018-05-16T17:59:54.097Z,100627.61
2018-05-16T18:02:20.021Z,100636.17
2018-05-16T18:04:45.833Z,100628.03
2018-05-16T18:07:11.640Z,100626.97
2018-05-16T18:09:37.475Z,100626.86
2018-05-16T18:12:03.284Z,100630.95
2018-05-16T18:14:35.418Z,100621.75
2018-05-16T18:17:07.611Z,100630.19
2018-05-16T18:19:33.405Z,100632.08
2018-05-16T18:21:59.217Z,100630.94
2018-05-16T18:24:25.027Z,100627.27
2018-05-16T18:26:50.948Z,100635.33
2018-05-16T18:29:16.759Z,100640.63
2018-05-16T18:31:43.410Z,100642.68
2018-05-16T18:34:09.222Z,100645.11
2018-05-16T18:36:35.025Z,100645.61
2018-05-16T18:39:00.834Z,100643.45
2018-05-16T18:41:26.638Z,100643.98
2018-05-16T18:43:52.448Z,100653.83
2018-05-16T18:46:18.280Z,100650.50
2018-05-16T18:48:44.102Z,100648.06
2018-05-16T18:51:10.033Z,100649.66
2018-05-16T18:53:35.876Z,100647.91
2018-05-16T18:56:01.735Z,100652.45
2018-05-16T18:58:27.731Z,100658.02
2018-05-16T19:00:53.630Z,100658.17
2018-05-16T19:03:19.432Z,100659.08
2018-05-16T19:05:45.358Z,100665.48
2018-05-16T19:08:11.180Z,100666.96
2018-05-16T19:10:37.030Z,100675.48
2018-05-16T19:13:02.938Z,100675.41
2018-05-16T19:15:28.758Z,100681.06
2018-05-16T19:17:54.710Z,100684.89
2018-05-16T19:20:20.655Z,100681.89
2018-05-16T19:22:46.591Z,100687.53
2018-05-16T19:25:12.534Z,100687.13
2018-05-16T19:27:38.393Z,100685.88
2018-05-16T19:30:05.189Z,100684.69
2018-05-16T19:32:31.061Z,100692.65
2018-05-16T19:34:57.724Z,100686.28
2018-05-16T19:37:23.581Z,100691.73
2018-05-16T19:39:49.517Z,100689.51
2018-05-16T19:42:15.348Z,100695.84
2018-05-16T19:44:41.168Z,100695.38
2018-05-16T19:47:06.980Z,100698.48
2018-05-16T19:49:32.820Z,100702.54
2018-05-16T19:51:58.681Z,100705.68
2018-05-16T19:54:24.509Z,100697.46
2018-05-16T19:56:50.361Z,100700.61
2018-05-16T19:59:16.168Z,100703.67
2018-05-16T20:01:42.086Z,100703.67
2018-05-16T20:04:07.892Z,100703.79
2018-05-16T20:06:33.697Z,100705.53
2018-05-16T20:08:59.506Z,100709.58
2018-05-16T20:11:25.317Z,100710.42
2018-05-16T20:13:51.124Z,100710.42
2018-05-16T20:16:23.920Z,100708.33
2018-05-16T20:18:49.742Z,100714.20
2018-05-16T20:21:16.496Z,100712.88
2018-05-16T20:23:42.321Z,100713.78
2018-05-16T20:26:10.432Z,100715.60
2018-05-16T20:28:37.240Z,100720.34
2018-05-16T20:31:03.921Z,100714.81
2018-05-16T20:33:29.765Z,100712.11
2018-05-16T20:35:56.509Z,100712.95
2018-05-16T20:38:23.119Z,100715.64
2018-05-16T20:40:49.729Z,100716.28
2018-05-16T20:43:15.582Z,100713.70
2018-05-16T20:45:41.392Z,100711.05
2018-05-16T20:48:07.230Z,100712.04
2018-05-16T20:50:33.073Z,100720.03
2018-05-16T20:52:58.881Z,100716.62
2018-05-16T20:55:24.821Z,100714.47
2018-05-16T20:57:51.592Z,100713.14
2018-05-16T21:00:17.441Z,100713.90
2018-05-16T21:02:43.237Z,100706.09
2018-05-16T21:05:09.110Z,100712.57
2018-05-16T21:07:34.920Z,100707.00
2018-05-16T21:10:00.731Z,100712.72
2018-05-16T21:12:26.541Z,100708.81
2018-05-16T21:14:53.332Z,100698.41
2018-05-16T21:17:19.137Z,100700.15
2018-05-16T21:19:46.025Z,100704.54
2018-05-16T21:22:11.894Z,100700.98
2018-05-16T21:24:37.813Z,100695.33
2018-05-16T21:27:03.636Z,100695.41
2018-05-16T21:29:29.440Z,100694.65
2018-05-16T21:31:55.272Z,100697.38
2018-05-16T21:34:21.100Z,100697.72
2018-05-16T21:36:47.013Z,100696.31
2018-05-16T21:39:12.832Z,100692.61
2018-05-16T21:41:38.633Z,100698.73
2018-05-16T21:44:04.436Z,100698.28
2018-05-16T21:46:30.248Z,100703.09
2018-05-16T21:48:56.085Z,100702.72
2018-05-16T21:51:21.888Z,100695.82
2018-05-16T21:53:47.784Z,100695.67
2018-05-16T21:56:22.048Z,100696.73
2018-05-16T21:58:51.478Z,100695.97
2018-05-16T22:01:17.395Z,100697.56
2018-05-16T22:03:43.364Z,100696.05
2018-05-16T22:06:09.175Z,100693.73
2018-05-16T22:08:34.976Z,100690.52
2018-05-16T22:11:00.777Z,100698.31
2018-05-16T22:13:26.583Z,100692.19
2018-05-16T22:15:52.379Z,100691.70
2018-05-16T22:18:18.175Z,100693.58
2018-05-16T22:20:43.977Z,100693.92
2018-05-16T22:23:09.871Z,100695.33
2018-05-16T22:25:35.710Z,100691.57
2018-05-16T22:28:01.511Z,100691.27
2018-05-16T22:30:33.388Z,100692.53
2018-05-16T22:33:05.335Z,100693.58
2018-05-16T22:35:37.428Z,100690.86
2018-05-16T22:38:09.476Z,100692.17
2018-05-16T22:40:41.471Z,100691.00
2018-05-16T22:43:07.212Z,100686.68
2018-05-16T22:45:34.008Z,100684.64
2018-05-16T22:47:59.803Z,100681.41
2018-05-16T22:50:25.609Z,100685.19
2018-05-16T22:52:51.473Z,100688.30
2018-05-16T22:55:17.279Z,100684.48
2018-05-16T22:57:43.080Z,100685.68
2018-05-16T23:00:08.896Z,100677.87
2018-05-16T23:02:34.689Z,100675.87
2018-05-16T23:05:00.484Z,100669.36
2018-05-16T23:07:26.280Z,100673.98
2018-05-16T23:09:52.078Z,100663.79
2018-05-16T23:12:17.876Z,100666.09
2018-05-16T23:14:43.672Z,100662.06
2018-05-16T23:17:09.472Z,100661.30
2018-05-16T23:19:35.280Z,100657.36
2018-05-16T23:22:02.001Z,100656.05
2018-05-16T23:24:27.803Z,100652.85
2018-05-16T23:26:53.600Z,100652.22
2018-05-16T23:29:20.353Z,100651.61
2018-05-16T23:31:47.160Z,100649.42
2018-05-16T23:34:12.956Z,100643.70
2018-05-16T23:36:38.792Z,100640.02
2018-05-16T23:39:05.420Z,100641.42
2018-05-16T23:41:31.213Z,100634.73
2018-05-16T23:43:57.948Z,100642.45
2018-05-16T23:46:24.732Z,100640.63
2018-05-16T23:48:50.536Z,100638.53
2018-05-16T23:51:16.336Z,100642.59
2018-05-16T23:53:42.138Z,100641.60
2018-05-16T23:56:08.814Z,100648.30
2018-05-16T23:58:34.663Z,100643.08
